sensor_id;sensor_type;location;lat;lon;timestamp;P1;durP1;ratioP1;P2;durP2;ratioP2
49948;SDS011;35840;45.982;8.890;2024-02-28T00:02:03;6.38;;;5.03;;
49948;SDS011;35840;45.982;8.890;2024-02-28T00:04:31;5.28;;;4.50;;
49948;SDS011;35840;45.982;8.890;2024-02-28T00:06:57;5.22;;;4.25;;
49948;SDS011;35840;45.982;8.890;2024-02-28T00:09:25;6.55;;;3.95;;
49948;SDS011;35840;45.982;8.890;2024-02-28T00:11:52;6.78;;;4.40;;
49948;SDS011;35840;45.982;8.890;2024-02-28T00:14:18;4.70;;;4.10;;
49948;SDS011;35840;45.982;8.890;2024-02-28T00:16:46;8.73;;;4.63;;
49948;SDS011;35840;45.982;8.890;2024-02-28T00:19:14;6.45;;;4.13;;
49948;SDS011;35840;45.982;8.890;2024-02-28T00:21:41;6.35;;;5.20;;
49948;SDS011;35840;45.982;8.890;2024-02-28T00:24:08;5.60;;;5.07;;
49948;SDS011;35840;45.982;8.890;2024-02-28T00:26:37;7.85;;;5.32;;
49948;SDS011;35840;45.982;8.890;2024-02-28T00:29:09;6.20;;;4.55;;
49948;SDS011;35840;45.982;8.890;2024-02-28T00:31:36;6.75;;;5.07;;
49948;SDS011;35840;45.982;8.890;2024-02-28T00:34:03;7.00;;;4.72;;
49948;SDS011;35840;45.982;8.890;2024-02-28T00:36:29;6.75;;;5.03;;
49948;SDS011;35840;45.982;8.890;2024-02-28T00:39:13;7.10;;;4.40;;
49948;SDS011;35840;45.982;8.890;2024-02-28T00:41:40;8.75;;;5.22;;
49948;SDS011;35840;45.982;8.890;2024-02-28T00:44:07;5.47;;;4.38;;
49948;SDS011;35840;45.982;8.890;2024-02-28T00:46:35;4.53;;;4.10;;
49948;SDS011;35840;45.982;8.890;2024-02-28T00:49:02;5.10;;;4.60;;
49948;SDS011;35840;45.982;8.890;2024-02-28T00:51:28;4.88;;;4.38;;
49948;SDS011;35840;45.982;8.890;2024-02-28T00:53:55;5.30;;;4.45;;
49948;SDS011;35840;45.982;8.890;2024-02-28T00:56:22;5.40;;;4.18;;
49948;SDS011;35840;45.982;8.890;2024-02-28T00:58:51;4.93;;;4.20;;
49948;SDS011;35840;45.982;8.890;2024-02-28T01:01:17;6.43;;;4.22;;
49948;SDS011;35840;45.982;8.890;2024-02-28T01:03:44;5.80;;;4.90;;
49948;SDS011;35840;45.982;8.890;2024-02-28T01:06:11;6.72;;;4.97;;
49948;SDS011;35840;45.982;8.890;2024-02-28T01:08:38;5.60;;;5.00;;
49948;SDS011;35840;45.982;8.890;2024-02-28T01:11:05;5.63;;;4.68;;
49948;SDS011;35840;45.982;8.890;2024-02-28T01:13:32;7.72;;;4.90;;
49948;SDS011;35840;45.982;8.890;2024-02-28T01:15:59;8.20;;;4.85;;
49948;SDS011;35840;45.982;8.890;2024-02-28T01:18:26;7.50;;;4.88;;
49948;SDS011;35840;45.982;8.890;2024-02-28T01:20:57;5.30;;;4.15;;
49948;SDS011;35840;45.982;8.890;2024-02-28T01:23:24;4.85;;;4.18;;
49948;SDS011;35840;45.982;8.890;2024-02-28T01:25:51;9.00;;;4.50;;
49948;SDS011;35840;45.982;8.890;2024-02-28T01:28:18;8.30;;;5.07;;
49948;SDS011;35840;45.982;8.890;2024-02-28T01:30:45;10.90;;;5.03;;
49948;SDS011;35840;45.982;8.890;2024-02-28T01:33:12;7.65;;;5.50;;
49948;SDS011;35840;45.982;8.890;2024-02-28T01:35:40;7.13;;;5.28;;
49948;SDS011;35840;45.982;8.890;2024-02-28T01:38:07;6.65;;;5.55;;
49948;SDS011;35840;45.982;8.890;2024-02-28T01:40:34;5.63;;;4.80;;
49948;SDS011;35840;45.982;8.890;2024-02-28T01:43:06;5.30;;;4.22;;
49948;SDS011;35840;45.982;8.890;2024-02-28T01:45:34;5.85;;;4.78;;
49948;SDS011;35840;45.982;8.890;2024-02-28T01:48:02;7.35;;;5.07;;
49948;SDS011;35840;45.982;8.890;2024-02-28T01:50:29;5.72;;;4.45;;
49948;SDS011;35840;45.982;8.890;2024-02-28T01:52:56;5.45;;;4.40;;
49948;SDS011;35840;45.982;8.890;2024-02-28T01:55:23;6.07;;;4.55;;
49948;SDS011;35840;45.982;8.890;2024-02-28T01:57:51;6.68;;;5.25;;
49948;SDS011;35840;45.982;8.890;2024-02-28T02:00:18;8.23;;;5.85;;
49948;SDS011;35840;45.982;8.890;2024-02-28T02:02:47;7.57;;;6.15;;
49948;SDS011;35840;45.982;8.890;2024-02-28T02:05:14;7.50;;;5.90;;
49948;SDS011;35840;45.982;8.890;2024-02-28T02:07:42;10.20;;;6.35;;
49948;SDS011;35840;45.982;8.890;2024-02-28T02:10:09;8.27;;;6.22;;
49948;SDS011;35840;45.982;8.890;2024-02-28T02:12:38;7.38;;;5.80;;
49948;SDS011;35840;45.982;8.890;2024-02-28T02:15:05;7.07;;;5.05;;
49948;SDS011;35840;45.982;8.890;2024-02-28T02:17:32;7.70;;;5.10;;
49948;SDS011;35840;45.982;8.890;2024-02-28T02:19:59;11.75;;;6.22;;
49948;SDS011;35840;45.982;8.890;2024-02-28T02:22:27;6.82;;;5.75;;
49948;SDS011;35840;45.982;8.890;2024-02-28T02:24:56;5.28;;;4.78;;
49948;SDS011;35840;45.982;8.890;2024-02-28T02:27:24;7.55;;;5.93;;
49948;SDS011;35840;45.982;8.890;2024-02-28T02:29:52;7.95;;;5.20;;
49948;SDS011;35840;45.982;8.890;2024-02-28T02:32:19;7.80;;;5.90;;
49948;SDS011;35840;45.982;8.890;2024-02-28T02:34:46;7.03;;;5.50;;
49948;SDS011;35840;45.982;8.890;2024-02-28T02:37:13;7.05;;;5.43;;
49948;SDS011;35840;45.982;8.890;2024-02-28T02:39:39;7.72;;;6.00;;
49948;SDS011;35840;45.982;8.890;2024-02-28T02:42:06;9.48;;;6.30;;
49948;SDS011;35840;45.982;8.890;2024-02-28T02:44:33;10.98;;;6.75;;
49948;SDS011;35840;45.982;8.890;2024-02-28T02:47:01;7.40;;;6.70;;
49948;SDS011;35840;45.982;8.890;2024-02-28T02:49:27;7.50;;;6.15;;
49948;SDS011;35840;45.982;8.890;2024-02-28T02:51:54;7.93;;;5.95;;
49948;SDS011;35840;45.982;8.890;2024-02-28T02:54:21;6.47;;;5.30;;
49948;SDS011;35840;45.982;8.890;2024-02-28T02:56:48;9.43;;;6.10;;
49948;SDS011;35840;45.982;8.890;2024-02-28T02:59:14;6.15;;;5.55;;
49948;SDS011;35840;45.982;8.890;2024-02-28T03:01:41;6.00;;;5.13;;
49948;SDS011;35840;45.982;8.890;2024-02-28T03:04:08;9.00;;;5.60;;
49948;SDS011;35840;45.982;8.890;2024-02-28T03:06:35;7.35;;;5.65;;
49948;SDS011;35840;45.982;8.890;2024-02-28T03:09:02;9.40;;;6.53;;
49948;SDS011;35840;45.982;8.890;2024-02-28T03:11:29;8.40;;;6.00;;
49948;SDS011;35840;45.982;8.890;2024-02-28T03:13:56;9.82;;;5.72;;
49948;SDS011;35840;45.982;8.890;2024-02-28T03:16:23;6.65;;;5.57;;
49948;SDS011;35840;45.982;8.890;2024-02-28T03:18:50;6.93;;;4.82;;
49948;SDS011;35840;45.982;8.890;2024-02-28T03:21:17;8.30;;;5.50;;
49948;SDS011;35840;45.982;8.890;2024-02-28T03:23:44;7.13;;;5.82;;
49948;SDS011;35840;45.982;8.890;2024-02-28T03:26:10;5.80;;;4.85;;
49948;SDS011;35840;45.982;8.890;2024-02-28T03:28:37;6.30;;;4.90;;
49948;SDS011;35840;45.982;8.890;2024-02-28T03:31:04;6.40;;;5.05;;
49948;SDS011;35840;45.982;8.890;2024-02-28T03:33:31;6.63;;;4.68;;
49948;SDS011;35840;45.982;8.890;2024-02-28T03:35:59;6.80;;;4.97;;
49948;SDS011;35840;45.982;8.890;2024-02-28T03:38:26;6.05;;;4.88;;
49948;SDS011;35840;45.982;8.890;2024-02-28T03:40:53;8.90;;;5.25;;
49948;SDS011;35840;45.982;8.890;2024-02-28T03:43:20;7.10;;;5.05;;
49948;SDS011;35840;45.982;8.890;2024-02-28T03:45:46;7.70;;;4.53;;
49948;SDS011;35840;45.982;8.890;2024-02-28T03:48:13;5.85;;;4.50;;
49948;SDS011;35840;45.982;8.890;2024-02-28T03:50:40;6.28;;;4.80;;
49948;SDS011;35840;45.982;8.890;2024-02-28T03:53:07;5.95;;;3.80;;
49948;SDS011;35840;45.982;8.890;2024-02-28T03:55:34;5.75;;;4.05;;
49948;SDS011;35840;45.982;8.890;2024-02-28T03:58:01;4.20;;;3.65;;
49948;SDS011;35840;45.982;8.890;2024-02-28T04:00:29;6.60;;;4.57;;
49948;SDS011;35840;45.982;8.890;2024-02-28T04:02:55;4.72;;;4.03;;
49948;SDS011;35840;45.982;8.890;2024-02-28T04:05:22;7.18;;;4.50;;
49948;SDS011;35840;45.982;8.890;2024-02-28T04:07:49;5.70;;;4.15;;
49948;SDS011;35840;45.982;8.890;2024-02-28T04:10:16;5.07;;;3.70;;
49948;SDS011;35840;45.982;8.890;2024-02-28T04:12:43;4.10;;;3.70;;
49948;SDS011;35840;45.982;8.890;2024-02-28T04:15:13;5.65;;;4.07;;
49948;SDS011;35840;45.982;8.890;2024-02-28T04:17:41;5.53;;;4.22;;
49948;SDS011;35840;45.982;8.890;2024-02-28T04:20:12;5.70;;;4.47;;
49948;SDS011;35840;45.982;8.890;2024-02-28T04:22:39;6.97;;;4.60;;
49948;SDS011;35840;45.982;8.890;2024-02-28T04:25:07;6.30;;;4.53;;
49948;SDS011;35840;45.982;8.890;2024-02-28T04:27:35;5.57;;;4.53;;
49948;SDS011;35840;45.982;8.890;2024-02-28T04:30:03;4.53;;;3.83;;
49948;SDS011;35840;45.982;8.890;2024-02-28T04:32:31;5.22;;;4.53;;
49948;SDS011;35840;45.982;8.890;2024-02-28T04:34:58;9.65;;;4.30;;
49948;SDS011;35840;45.982;8.890;2024-02-28T04:37:25;7.30;;;4.82;;
49948;SDS011;35840;45.982;8.890;2024-02-28T04:39:51;6.25;;;4.35;;
49948;SDS011;35840;45.982;8.890;2024-02-28T04:42:18;6.72;;;4.22;;
49948;SDS011;35840;45.982;8.890;2024-02-28T04:44:45;5.22;;;4.28;;
49948;SDS011;35840;45.982;8.890;2024-02-28T04:47:12;6.72;;;4.78;;
49948;SDS011;35840;45.982;8.890;2024-02-28T04:49:39;6.85;;;5.25;;
49948;SDS011;35840;45.982;8.890;2024-02-28T04:52:06;6.72;;;4.85;;
49948;SDS011;35840;45.982;8.890;2024-02-28T04:54:33;5.43;;;4.10;;
49948;SDS011;35840;45.982;8.890;2024-02-28T04:57:00;4.80;;;3.95;;
49948;SDS011;35840;45.982;8.890;2024-02-28T04:59:27;5.65;;;4.75;;
49948;SDS011;35840;45.982;8.890;2024-02-28T05:01:54;5.88;;;4.55;;
49948;SDS011;35840;45.982;8.890;2024-02-28T05:04:21;6.05;;;4.25;;
49948;SDS011;35840;45.982;8.890;2024-02-28T05:06:48;4.65;;;3.70;;
49948;SDS011;35840;45.982;8.890;2024-02-28T05:09:15;6.72;;;3.83;;
49948;SDS011;35840;45.982;8.890;2024-02-28T05:11:43;4.85;;;3.78;;
49948;SDS011;35840;45.982;8.890;2024-02-28T05:14:10;3.83;;;3.25;;
49948;SDS011;35840;45.982;8.890;2024-02-28T05:16:37;4.03;;;3.00;;
49948;SDS011;35840;45.982;8.890;2024-02-28T05:19:04;3.97;;;3.33;;
49948;SDS011;35840;45.982;8.890;2024-02-28T05:21:31;3.58;;;3.10;;
49948;SDS011;35840;45.982;8.890;2024-02-28T05:24:05;3.65;;;2.90;;
49948;SDS011;35840;45.982;8.890;2024-02-28T05:26:33;7.38;;;2.65;;
49948;SDS011;35840;45.982;8.890;2024-02-28T05:29:01;3.65;;;2.80;;
49948;SDS011;35840;45.982;8.890;2024-02-28T05:31:30;6.05;;;3.00;;
49948;SDS011;35840;45.982;8.890;2024-02-28T05:34:00;5.47;;;3.97;;
49948;SDS011;35840;45.982;8.890;2024-02-28T05:36:30;4.70;;;3.60;;
49948;SDS011;35840;45.982;8.890;2024-02-28T05:38:58;5.57;;;3.40;;
49948;SDS011;35840;45.982;8.890;2024-02-28T05:41:27;4.57;;;3.38;;
49948;SDS011;35840;45.982;8.890;2024-02-28T05:43:55;5.30;;;3.72;;
49948;SDS011;35840;45.982;8.890;2024-02-28T05:46:22;4.93;;;3.47;;
49948;SDS011;35840;45.982;8.890;2024-02-28T05:48:48;4.30;;;3.50;;
49948;SDS011;35840;45.982;8.890;2024-02-28T05:51:15;3.95;;;3.53;;
49948;SDS011;35840;45.982;8.890;2024-02-28T05:53:42;4.65;;;3.47;;
49948;SDS011;35840;45.982;8.890;2024-02-28T05:56:10;4.28;;;3.40;;
49948;SDS011;35840;45.982;8.890;2024-02-28T05:58:43;5.68;;;3.10;;
49948;SDS011;35840;45.982;8.890;2024-02-28T06:01:11;5.50;;;3.50;;
49948;SDS011;35840;45.982;8.890;2024-02-28T06:03:41;5.70;;;2.95;;
49948;SDS011;35840;45.982;8.890;2024-02-28T06:06:08;3.65;;;3.20;;
49948;SDS011;35840;45.982;8.890;2024-02-28T06:08:37;4.18;;;3.03;;
49948;SDS011;35840;45.982;8.890;2024-02-28T06:11:05;3.88;;;2.80;;
49948;SDS011;35840;45.982;8.890;2024-02-28T06:13:31;3.58;;;2.80;;
49948;SDS011;35840;45.982;8.890;2024-02-28T06:15:59;3.95;;;3.42;;
49948;SDS011;35840;45.982;8.890;2024-02-28T06:18:26;4.10;;;3.13;;
49948;SDS011;35840;45.982;8.890;2024-02-28T06:20:54;4.28;;;3.70;;
49948;SDS011;35840;45.982;8.890;2024-02-28T06:23:22;4.32;;;3.30;;
49948;SDS011;35840;45.982;8.890;2024-02-28T06:25:55;6.78;;;4.00;;
49948;SDS011;35840;45.982;8.890;2024-02-28T06:28:25;5.13;;;3.88;;
49948;SDS011;35840;45.982;8.890;2024-02-28T06:30:52;6.03;;;4.20;;
49948;SDS011;35840;45.982;8.890;2024-02-28T06:33:19;6.05;;;3.75;;
49948;SDS011;35840;45.982;8.890;2024-02-28T06:35:46;8.65;;;4.95;;
49948;SDS011;35840;45.982;8.890;2024-02-28T06:38:13;5.45;;;4.60;;
49948;SDS011;35840;45.982;8.890;2024-02-28T06:40:40;6.03;;;4.22;;
49948;SDS011;35840;45.982;8.890;2024-02-28T06:43:08;5.05;;;4.07;;
49948;SDS011;35840;45.982;8.890;2024-02-28T06:45:35;8.02;;;4.43;;
49948;SDS011;35840;45.982;8.890;2024-02-28T06:48:03;9.88;;;5.70;;
49948;SDS011;35840;45.982;8.890;2024-02-28T06:50:31;6.22;;;4.85;;
49948;SDS011;35840;45.982;8.890;2024-02-28T06:52:57;7.63;;;5.75;;
49948;SDS011;35840;45.982;8.890;2024-02-28T06:55:24;9.27;;;6.95;;
49948;SDS011;35840;45.982;8.890;2024-02-28T06:57:51;11.88;;;8.73;;
49948;SDS011;35840;45.982;8.890;2024-02-28T07:00:18;11.02;;;7.00;;
49948;SDS011;35840;45.982;8.890;2024-02-28T07:02:46;12.13;;;7.45;;
49948;SDS011;35840;45.982;8.890;2024-02-28T07:05:13;10.60;;;7.05;;
49948;SDS011;35840;45.982;8.890;2024-02-28T07:07:40;9.70;;;5.97;;
49948;SDS011;35840;45.982;8.890;2024-02-28T07:10:06;9.48;;;6.60;;
49948;SDS011;35840;45.982;8.890;2024-02-28T07:12:33;9.02;;;6.63;;
49948;SDS011;35840;45.982;8.890;2024-02-28T07:15:00;9.05;;;6.30;;
49948;SDS011;35840;45.982;8.890;2024-02-28T07:17:27;12.25;;;6.97;;
49948;SDS011;35840;45.982;8.890;2024-02-28T07:19:54;9.27;;;6.10;;
49948;SDS011;35840;45.982;8.890;2024-02-28T07:22:21;7.85;;;6.13;;
49948;SDS011;35840;45.982;8.890;2024-02-28T07:24:48;8.18;;;5.70;;
49948;SDS011;35840;45.982;8.890;2024-02-28T07:27:15;10.13;;;6.47;;
49948;SDS011;35840;45.982;8.890;2024-02-28T07:29:44;8.23;;;6.28;;
49948;SDS011;35840;45.982;8.890;2024-02-28T07:32:12;6.38;;;5.50;;
49948;SDS011;35840;45.982;8.890;2024-02-28T07:34:39;8.38;;;5.72;;
49948;SDS011;35840;45.982;8.890;2024-02-28T07:37:06;10.57;;;6.65;;
49948;SDS011;35840;45.982;8.890;2024-02-28T07:39:34;9.70;;;6.85;;
49948;SDS011;35840;45.982;8.890;2024-02-28T07:42:01;7.45;;;6.30;;
49948;SDS011;35840;45.982;8.890;2024-02-28T07:44:28;9.90;;;6.13;;
49948;SDS011;35840;45.982;8.890;2024-02-28T07:46:57;8.38;;;5.70;;
49948;SDS011;35840;45.982;8.890;2024-02-28T07:49:25;8.40;;;5.53;;
49948;SDS011;35840;45.982;8.890;2024-02-28T07:51:54;6.82;;;5.22;;
49948;SDS011;35840;45.982;8.890;2024-02-28T07:54:21;6.47;;;4.75;;
49948;SDS011;35840;45.982;8.890;2024-02-28T07:56:48;7.13;;;5.20;;
49948;SDS011;35840;45.982;8.890;2024-02-28T07:59:15;9.00;;;5.43;;
49948;SDS011;35840;45.982;8.890;2024-02-28T08:01:42;8.25;;;4.95;;
49948;SDS011;35840;45.982;8.890;2024-02-28T08:04:09;5.00;;;4.50;;
49948;SDS011;35840;45.982;8.890;2024-02-28T08:06:36;6.43;;;5.43;;
49948;SDS011;35840;45.982;8.890;2024-02-28T08:09:03;6.90;;;5.63;;
49948;SDS011;35840;45.982;8.890;2024-02-28T08:11:30;5.80;;;4.70;;
49948;SDS011;35840;45.982;8.890;2024-02-28T08:13:57;5.22;;;4.05;;
49948;SDS011;35840;45.982;8.890;2024-02-28T08:16:24;5.95;;;4.28;;
49948;SDS011;35840;45.982;8.890;2024-02-28T08:18:54;5.43;;;4.38;;
49948;SDS011;35840;45.982;8.890;2024-02-28T08:21:21;6.43;;;4.45;;
49948;SDS011;35840;45.982;8.890;2024-02-28T08:23:48;5.05;;;4.35;;
49948;SDS011;35840;45.982;8.890;2024-02-28T08:26:15;7.68;;;4.75;;
49948;SDS011;35840;45.982;8.890;2024-02-28T08:28:41;8.57;;;4.88;;
49948;SDS011;35840;45.982;8.890;2024-02-28T08:31:08;6.57;;;4.90;;
49948;SDS011;35840;45.982;8.890;2024-02-28T08:33:35;5.90;;;4.93;;
49948;SDS011;35840;45.982;8.890;2024-02-28T08:36:02;6.38;;;4.80;;
49948;SDS011;35840;45.982;8.890;2024-02-28T08:38:29;4.63;;;4.13;;
49948;SDS011;35840;45.982;8.890;2024-02-28T08:40:56;5.68;;;4.07;;
49948;SDS011;35840;45.982;8.890;2024-02-28T08:43:23;5.95;;;4.60;;
49948;SDS011;35840;45.982;8.890;2024-02-28T08:45:50;13.38;;;6.18;;
49948;SDS011;35840;45.982;8.890;2024-02-28T08:48:18;9.90;;;5.55;;
49948;SDS011;35840;45.982;8.890;2024-02-28T08:50:45;6.22;;;4.60;;
49948;SDS011;35840;45.982;8.890;2024-02-28T08:53:12;7.20;;;4.90;;
49948;SDS011;35840;45.982;8.890;2024-02-28T08:55:38;6.40;;;5.35;;
49948;SDS011;35840;45.982;8.890;2024-02-28T08:58:05;5.60;;;4.68;;
49948;SDS011;35840;45.982;8.890;2024-02-28T09:00:32;7.28;;;5.15;;
49948;SDS011;35840;45.982;8.890;2024-02-28T09:02:59;12.68;;;5.18;;
49948;SDS011;35840;45.982;8.890;2024-02-28T09:05:26;6.80;;;4.80;;
49948;SDS011;35840;45.982;8.890;2024-02-28T09:07:53;6.18;;;4.10;;
49948;SDS011;35840;45.982;8.890;2024-02-28T09:10:21;5.97;;;4.30;;
49948;SDS011;35840;45.982;8.890;2024-02-28T09:12:51;7.20;;;4.72;;
49948;SDS011;35840;45.982;8.890;2024-02-28T09:15:18;5.53;;;3.95;;
49948;SDS011;35840;45.982;8.890;2024-02-28T09:17:45;5.68;;;4.60;;
49948;SDS011;35840;45.982;8.890;2024-02-28T09:20:12;7.00;;;4.80;;
49948;SDS011;35840;45.982;8.890;2024-02-28T09:22:39;6.82;;;4.85;;
49948;SDS011;35840;45.982;8.890;2024-02-28T09:25:06;4.82;;;4.32;;
49948;SDS011;35840;45.982;8.890;2024-02-28T09:27:36;6.28;;;4.60;;
49948;SDS011;35840;45.982;8.890;2024-02-28T09:30:03;5.97;;;4.40;;
49948;SDS011;35840;45.982;8.890;2024-02-28T09:32:31;7.32;;;4.30;;
49948;SDS011;35840;45.982;8.890;2024-02-28T09:34:58;5.50;;;4.97;;
49948;SDS011;35840;45.982;8.890;2024-02-28T09:37:25;5.10;;;4.47;;
49948;SDS011;35840;45.982;8.890;2024-02-28T09:39:52;5.63;;;5.03;;
49948;SDS011;35840;45.982;8.890;2024-02-28T09:42:20;8.13;;;5.10;;
49948;SDS011;35840;45.982;8.890;2024-02-28T09:44:47;9.23;;;5.05;;
49948;SDS011;35840;45.982;8.890;2024-02-28T09:47:14;5.05;;;4.25;;
49948;SDS011;35840;45.982;8.890;2024-02-28T09:49:41;5.32;;;4.60;;
49948;SDS011;35840;45.982;8.890;2024-02-28T09:52:09;8.02;;;4.57;;
49948;SDS011;35840;45.982;8.890;2024-02-28T09:54:36;5.10;;;3.97;;
49948;SDS011;35840;45.982;8.890;2024-02-28T09:57:04;5.32;;;3.83;;
49948;SDS011;35840;45.982;8.890;2024-02-28T09:59:31;6.35;;;4.40;;
49948;SDS011;35840;45.982;8.890;2024-02-28T10:02:17;6.25;;;3.90;;
49948;SDS011;35840;45.982;8.890;2024-02-28T10:04:47;10.88;;;3.58;;
49948;SDS011;35840;45.982;8.890;2024-02-28T10:07:14;6.15;;;3.78;;
49948;SDS011;35840;45.982;8.890;2024-02-28T10:09:41;7.93;;;3.00;;
49948;SDS011;35840;45.982;8.890;2024-02-28T10:12:09;3.58;;;3.13;;
49948;SDS011;35840;45.982;8.890;2024-02-28T10:14:36;8.00;;;4.40;;
49948;SDS011;35840;45.982;8.890;2024-02-28T10:17:04;14.10;;;5.03;;
49948;SDS011;35840;45.982;8.890;2024-02-28T10:19:32;9.70;;;5.20;;
49948;SDS011;35840;45.982;8.890;2024-02-28T10:21:58;6.43;;;4.78;;
49948;SDS011;35840;45.982;8.890;2024-02-28T10:24:26;6.50;;;4.53;;
49948;SDS011;35840;45.982;8.890;2024-02-28T10:26:53;5.70;;;4.85;;
49948;SDS011;35840;45.982;8.890;2024-02-28T10:29:23;6.95;;;4.50;;
49948;SDS011;35840;45.982;8.890;2024-02-28T10:31:51;5.78;;;3.80;;
49948;SDS011;35840;45.982;8.890;2024-02-28T10:34:19;5.18;;;3.85;;
49948;SDS011;35840;45.982;8.890;2024-02-28T10:36:46;7.20;;;4.32;;
49948;SDS011;35840;45.982;8.890;2024-02-28T10:39:13;3.35;;;3.00;;
49948;SDS011;35840;45.982;8.890;2024-02-28T10:41:41;4.13;;;3.50;;
49948;SDS011;35840;45.982;8.890;2024-02-28T10:44:09;4.75;;;3.05;;
49948;SDS011;35840;45.982;8.890;2024-02-28T10:46:39;3.30;;;2.70;;
49948;SDS011;35840;45.982;8.890;2024-02-28T10:49:06;3.10;;;2.00;;
49948;SDS011;35840;45.982;8.890;2024-02-28T10:51:34;5.03;;;2.10;;
49948;SDS011;35840;45.982;8.890;2024-02-28T10:54:07;2.78;;;2.05;;
49948;SDS011;35840;45.982;8.890;2024-02-28T10:56:41;2.38;;;2.17;;
49948;SDS011;35840;45.982;8.890;2024-02-28T10:59:10;3.10;;;2.22;;
49948;SDS011;35840;45.982;8.890;2024-02-28T11:01:40;2.72;;;2.35;;
49948;SDS011;35840;45.982;8.890;2024-02-28T11:04:09;2.60;;;1.75;;
49948;SDS011;35840;45.982;8.890;2024-02-28T11:06:47;9.23;;;2.58;;
49948;SDS011;35840;45.982;8.890;2024-02-28T11:09:19;3.30;;;2.40;;
49948;SDS011;35840;45.982;8.890;2024-02-28T11:11:51;3.70;;;2.55;;
49948;SDS011;35840;45.982;8.890;2024-02-28T11:14:18;3.33;;;2.63;;
49948;SDS011;35840;45.982;8.890;2024-02-28T11:17:00;2.58;;;2.10;;
49948;SDS011;35840;45.982;8.890;2024-02-28T11:19:29;8.27;;;3.03;;
49948;SDS011;35840;45.982;8.890;2024-02-28T11:22:01;3.05;;;2.05;;
49948;SDS011;35840;45.982;8.890;2024-02-28T11:24:32;3.03;;;1.90;;
49948;SDS011;35840;45.982;8.890;2024-02-28T11:27:00;3.80;;;2.47;;
49948;SDS011;35840;45.982;8.890;2024-02-28T11:29:29;2.28;;;1.55;;
49948;SDS011;35840;45.982;8.890;2024-02-28T11:31:57;5.82;;;1.98;;
49948;SDS011;35840;45.982;8.890;2024-02-28T11:34:24;2.30;;;1.42;;
49948;SDS011;35840;45.982;8.890;2024-02-28T11:36:51;2.00;;;1.33;;
49948;SDS011;35840;45.982;8.890;2024-02-28T11:39:20;1.65;;;1.30;;
49948;SDS011;35840;45.982;8.890;2024-02-28T11:41:48;1.70;;;1.60;;
49948;SDS011;35840;45.982;8.890;2024-02-28T11:44:16;1.92;;;1.40;;
49948;SDS011;35840;45.982;8.890;2024-02-28T11:46:48;2.50;;;1.30;;
49948;SDS011;35840;45.982;8.890;2024-02-28T11:49:15;2.10;;;1.40;;
49948;SDS011;35840;45.982;8.890;2024-02-28T11:51:43;2.67;;;1.30;;
49948;SDS011;35840;45.982;8.890;2024-02-28T11:54:10;1.60;;;1.45;;
49948;SDS011;35840;45.982;8.890;2024-02-28T11:56:38;1.95;;;1.20;;
49948;SDS011;35840;45.982;8.890;2024-02-28T11:59:06;1.52;;;1.10;;
49948;SDS011;35840;45.982;8.890;2024-02-28T12:01:34;1.27;;;1.17;;
49948;SDS011;35840;45.982;8.890;2024-02-28T12:04:03;0.57;;;0.57;;
49948;SDS011;35840;45.982;8.890;2024-02-28T12:06:34;0.40;;;0.40;;
49948;SDS011;35840;45.982;8.890;2024-02-28T12:09:09;0.70;;;0.40;;
49948;SDS011;35840;45.982;8.890;2024-02-28T12:11:50;0.60;;;0.60;;
49948;SDS011;35840;45.982;8.890;2024-02-28T12:14:16;1.23;;;0.88;;
49948;SDS011;35840;45.982;8.890;2024-02-28T12:16:43;0.40;;;0.40;;
49948;SDS011;35840;45.982;8.890;2024-02-28T12:19:12;2.63;;;0.55;;
49948;SDS011;35840;45.982;8.890;2024-02-28T12:21:41;0.50;;;0.50;;
49948;SDS011;35840;45.982;8.890;2024-02-28T12:24:09;0.70;;;0.70;;
49948;SDS011;35840;45.982;8.890;2024-02-28T12:26:37;1.30;;;0.60;;
49948;SDS011;35840;45.982;8.890;2024-02-28T12:29:05;1.38;;;0.77;;
49948;SDS011;35840;45.982;8.890;2024-02-28T12:31:32;1.85;;;0.63;;
49948;SDS011;35840;45.982;8.890;2024-02-28T12:33:59;1.48;;;0.63;;
49948;SDS011;35840;45.982;8.890;2024-02-28T12:36:26;0.35;;;0.35;;
49948;SDS011;35840;45.982;8.890;2024-02-28T12:38:53;2.80;;;0.60;;
49948;SDS011;35840;45.982;8.890;2024-02-28T12:41:20;1.55;;;0.17;;
49948;SDS011;35840;45.982;8.890;2024-02-28T12:43:47;1.33;;;0.40;;
49948;SDS011;35840;45.982;8.890;2024-02-28T12:46:14;1.27;;;0.50;;
49948;SDS011;35840;45.982;8.890;2024-02-28T12:48:41;0.50;;;0.50;;
49948;SDS011;35840;45.982;8.890;2024-02-28T12:51:13;6.13;;;0.50;;
49948;SDS011;35840;45.982;8.890;2024-02-28T12:54:01;0.47;;;0.47;;
49948;SDS011;35840;45.982;8.890;2024-02-28T12:56:28;3.08;;;0.30;;
49948;SDS011;35840;45.982;8.890;2024-02-28T12:58:55;0.30;;;0.30;;
49948;SDS011;35840;45.982;8.890;2024-02-28T13:01:22;0.20;;;0.20;;
49948;SDS011;35840;45.982;8.890;2024-02-28T13:03:49;0.38;;;0.30;;
49948;SDS011;35840;45.982;8.890;2024-02-28T13:06:16;1.77;;;0.63;;
49948;SDS011;35840;45.982;8.890;2024-02-28T13:08:43;0.65;;;0.55;;
49948;SDS011;35840;45.982;8.890;2024-02-28T13:11:11;4.40;;;0.45;;
49948;SDS011;35840;45.982;8.890;2024-02-28T13:13:38;0.35;;;0.30;;
49948;SDS011;35840;45.982;8.890;2024-02-28T13:16:05;0.20;;;0.20;;
49948;SDS011;35840;45.982;8.890;2024-02-28T13:18:32;0.93;;;0.25;;
49948;SDS011;35840;45.982;8.890;2024-02-28T13:20:59;0.43;;;0.30;;
49948;SDS011;35840;45.982;8.890;2024-02-28T13:23:25;0.20;;;0.20;;
49948;SDS011;35840;45.982;8.890;2024-02-28T13:25:53;0.70;;;0.28;;
49948;SDS011;35840;45.982;8.890;2024-02-28T13:28:20;0.20;;;0.10;;
49948;SDS011;35840;45.982;8.890;2024-02-28T13:30:47;1.25;;;0.20;;
49948;SDS011;35840;45.982;8.890;2024-02-28T13:33:15;0.20;;;0.20;;
49948;SDS011;35840;45.982;8.890;2024-02-28T13:35:41;1.70;;;0.70;;
49948;SDS011;35840;45.982;8.890;2024-02-28T13:38:08;0.85;;;0.35;;
49948;SDS011;35840;45.982;8.890;2024-02-28T13:40:35;1.65;;;0.57;;
49948;SDS011;35840;45.982;8.890;2024-02-28T13:43:03;0.38;;;0.30;;
49948;SDS011;35840;45.982;8.890;2024-02-28T13:45:30;0.68;;;0.30;;
49948;SDS011;35840;45.982;8.890;2024-02-28T13:47:57;0.65;;;0.40;;
49948;SDS011;35840;45.982;8.890;2024-02-28T13:50:24;0.40;;;0.40;;
49948;SDS011;35840;45.982;8.890;2024-02-28T13:52:58;2.47;;;0.47;;
49948;SDS011;35840;45.982;8.890;2024-02-28T13:55:25;0.75;;;0.45;;
49948;SDS011;35840;45.982;8.890;2024-02-28T13:57:52;1.30;;;0.47;;
49948;SDS011;35840;45.982;8.890;2024-02-28T14:00:18;0.98;;;0.50;;
49948;SDS011;35840;45.982;8.890;2024-02-28T14:02:45;0.30;;;0.30;;
49948;SDS011;35840;45.982;8.890;2024-02-28T14:05:13;0.50;;;0.50;;
49948;SDS011;35840;45.982;8.890;2024-02-28T14:07:40;0.30;;;0.30;;
49948;SDS011;35840;45.982;8.890;2024-02-28T14:10:07;0.30;;;0.30;;
49948;SDS011;35840;45.982;8.890;2024-02-28T14:12:34;0.28;;;0.28;;
49948;SDS011;35840;45.982;8.890;2024-02-28T14:15:01;0.40;;;0.30;;
49948;SDS011;35840;45.982;8.890;2024-02-28T14:17:27;0.50;;;0.43;;
49948;SDS011;35840;45.982;8.890;2024-02-28T14:19:54;0.50;;;0.50;;
49948;SDS011;35840;45.982;8.890;2024-02-28T14:22:21;2.40;;;0.55;;
49948;SDS011;35840;45.982;8.890;2024-02-28T14:24:48;2.25;;;0.55;;
49948;SDS011;35840;45.982;8.890;2024-02-28T14:27:15;0.47;;;0.47;;
49948;SDS011;35840;45.982;8.890;2024-02-28T14:29:41;3.25;;;0.47;;
49948;SDS011;35840;45.982;8.890;2024-02-28T14:32:08;0.75;;;0.38;;
49948;SDS011;35840;45.982;8.890;2024-02-28T14:34:35;0.32;;;0.30;;
49948;SDS011;35840;45.982;8.890;2024-02-28T14:37:02;0.30;;;0.30;;
49948;SDS011;35840;45.982;8.890;2024-02-28T14:39:30;2.85;;;0.60;;
49948;SDS011;35840;45.982;8.890;2024-02-28T14:41:57;0.93;;;0.60;;
49948;SDS011;35840;45.982;8.890;2024-02-28T14:44:24;0.75;;;0.60;;
49948;SDS011;35840;45.982;8.890;2024-02-28T14:46:52;0.32;;;0.30;;
49948;SDS011;35840;45.982;8.890;2024-02-28T14:49:19;0.50;;;0.50;;
49948;SDS011;35840;45.982;8.890;2024-02-28T14:51:45;1.02;;;0.50;;